Time,TemperatureF,DewpointF,PressureIn,WindDirection,WindDirectionDegrees,WindSpeedMPH,WindSpeedGustMPH,Humidity,HourlyPrecipIn,Conditions,Clouds,dailyrainin,SoftwareType,DateUTC
2013-12-06 00:02:00,-6.0,-9.0,-100.00,WNW,290,13.0,16.0,89,-99.99,,,-99.99,,2013-12-06 06:02:00,
2013-12-06 00:42:00,-6.0,-9.0,-100.00,WNW,290,13.0,16.0,89,-99.99,,,-99.99,,2013-12-06 06:42:00,
2013-12-06 00:52:00,-6.0,-9.0,-100.00,WNW,290,13.0,16.0,89,-99.99,,,-99.99,,2013-12-06 06:52:00,
2013-12-06 01:02:00,-7.0,-9.0,-100.00,WNW,295,13.0,17.0,91,-99.99,,,-99.99,,2013-12-06 07:02:00,
2013-12-06 01:42:00,-7.0,-9.0,-100.00,WNW,295,13.0,17.0,91,-99.99,,,-99.99,,2013-12-06 07:42:00,
2013-12-06 01:52:00,-7.0,-9.0,-100.00,WNW,295,13.0,17.0,91,-99.99,,,-99.99,,2013-12-06 07:52:00,
2013-12-06 02:02:00,-9.0,-11.0,-100.00,NW,305,9.0,12.0,91,-99.99,,,-99.99,,2013-12-06 08:02:00,
2013-12-06 02:42:00,-9.0,-11.0,-100.00,NW,305,9.0,12.0,91,-99.99,,,-99.99,,2013-12-06 08:42:00,
2013-12-06 02:52:00,-9.0,-11.0,-100.00,NW,305,9.0,12.0,91,-99.99,,,-99.99,,2013-12-06 08:52:00,
2013-12-06 03:02:00,-10.0,-11.0,-100.00,NW,305,8.0,11.0,91,-99.99,,,-99.99,,2013-12-06 09:02:00,
2013-12-06 03:43:00,-10.0,-11.0,-100.00,NW,305,8.0,11.0,91,-99.99,,,-99.99,,2013-12-06 09:43:00,
2013-12-06 03:54:00,-10.0,-11.0,-100.00,NW,305,8.0,11.0,91,-99.99,,,-99.99,,2013-12-06 09:54:00,
2013-12-06 04:02:00,-11.0,-12.0,-100.00,NW,310,10.0,12.0,93,-99.99,,,-99.99,,2013-12-06 10:02:00,
2013-12-06 04:43:00,-11.0,-12.0,-100.00,NW,310,10.0,12.0,93,-99.99,,,-99.99,,2013-12-06 10:43:00,
2013-12-06 04:52:00,-11.0,-12.0,-100.00,NW,310,10.0,12.0,93,-99.99,,,-99.99,,2013-12-06 10:52:00,
2013-12-06 05:02:00,-11.0,-13.0,-100.00,West,275,8.0,9.0,93,-99.99,,,-99.99,,2013-12-06 11:02:00,
2013-12-06 05:42:00,-11.0,-13.0,-100.00,West,275,8.0,9.0,93,-99.99,,,-99.99,,2013-12-06 11:42:00,
2013-12-06 05:54:00,-11.0,-13.0,-100.00,West,275,8.0,9.0,93,-99.99,,,-99.99,,2013-12-06 11:54:00,
2013-12-06 06:02:00,-12.0,-14.0,-100.00,NNW,335,1.0,2.0,94,-99.99,,,-99.99,,2013-12-06 12:02:00,
2013-12-06 06:42:00,-12.0,-14.0,-100.00,NNW,335,1.0,2.0,94,-99.99,,,-99.99,,2013-12-06 12:42:00,
2013-12-06 06:52:00,-12.0,-14.0,-100.00,NNW,335,1.0,2.0,94,-99.99,,,-99.99,,2013-12-06 12:52:00,
2013-12-06 07:02:00,-12.0,-13.0,-100.00,West,270,5.0,6.0,95,-99.99,,,-99.99,,2013-12-06 13:02:00,
2013-12-06 07:42:00,-12.0,-13.0,-100.00,West,270,5.0,6.0,95,-99.99,,,-99.99,,2013-12-06 13:42:00,
2013-12-06 07:52:00,-12.0,-13.0,-100.00,West,270,5.0,6.0,95,-99.99,,,-99.99,,2013-12-06 13:52:00,
2013-12-06 08:02:00,-12.0,-14.0,-100.00,West,265,4.0,5.0,95,-99.99,,,-99.99,,2013-12-06 14:02:00,
2013-12-06 08:42:00,-12.0,-14.0,-100.00,West,265,4.0,5.0,95,-99.99,,,-99.99,,2013-12-06 14:42:00,
2013-12-06 08:53:00,-12.0,-14.0,-100.00,West,265,4.0,5.0,95,-99.99,,,-99.99,,2013-12-06 14:53:00,
2013-12-06 10:02:00,-9.0,-11.0,-100.00,WNW,295,9.0,11.0,92,-99.99,,,-99.99,,2013-12-06 16:02:00,
2013-12-06 10:43:00,-9.0,-11.0,-100.00,WNW,295,9.0,11.0,92,-99.99,,,-99.99,,2013-12-06 16:43:00,
2013-12-06 10:53:00,-9.0,-11.0,-100.00,WNW,295,9.0,11.0,92,-99.99,,,-99.99,,2013-12-06 16:53:00,
2013-12-06 11:02:00,-7.0,-10.0,-100.00,WNW,295,12.0,14.0,87,-99.99,,,-99.99,,2013-12-06 17:02:00,
2013-12-06 11:43:00,-7.0,-10.0,-100.00,WNW,295,12.0,14.0,87,-99.99,,,-99.99,,2013-12-06 17:43:00,
2013-12-06 11:52:00,-7.0,-10.0,-100.00,WNW,295,12.0,14.0,87,-99.99,,,-99.99,,2013-12-06 17:52:00,
2013-12-06 12:02:00,-6.0,-9.0,-100.00,NW,310,11.0,13.0,84,-99.99,,,-99.99,,2013-12-06 18:02:00,
2013-12-06 12:42:00,-6.0,-9.0,-100.00,NW,310,11.0,13.0,84,-99.99,,,-99.99,,2013-12-06 18:42:00,
2013-12-06 12:52:00,-6.0,-9.0,-100.00,NW,310,11.0,13.0,84,-99.99,,,-99.99,,2013-12-06 18:52:00,
2013-12-06 13:02:00,-4.0,-8.0,-100.00,NW,305,8.0,11.0,82,-99.99,,,-99.99,,2013-12-06 19:02:00,
2013-12-06 13:42:00,-4.0,-8.0,-100.00,NW,305,8.0,11.0,82,-99.99,,,-99.99,,2013-12-06 19:42:00,
2013-12-06 13:52:00,-4.0,-8.0,-100.00,NW,305,8.0,11.0,82,-99.99,,,-99.99,,2013-12-06 19:52:00,
2013-12-06 14:02:00,-4.0,-9.0,-100.00,WNW,295,11.0,12.0,79,-99.99,,,-99.99,,2013-12-06 20:02:00,
2013-12-06 14:42:00,-4.0,-9.0,-100.00,WNW,295,11.0,12.0,79,-99.99,,,-99.99,,2013-12-06 20:42:00,
2013-12-06 14:52:00,-4.0,-9.0,-100.00,WNW,295,11.0,12.0,79,-99.99,,,-99.99,,2013-12-06 20:52:00,
2013-12-06 15:02:00,-5.0,-10.0,-100.00,NW,305,11.0,12.0,76,-99.99,,,-99.99,,2013-12-06 21:02:00,
2013-12-06 15:43:00,-5.0,-10.0,-100.00,NW,305,11.0,12.0,76,-99.99,,,-99.99,,2013-12-06 21:43:00,
2013-12-06 15:54:00,-5.0,-10.0,-100.00,NW,305,11.0,12.0,76,-99.99,,,-99.99,,2013-12-06 21:54:00,
2013-12-06 16:02:00,-5.0,-10.0,-100.00,WNW,285,10.0,12.0,80,-99.99,,,-99.99,,2013-12-06 22:02:00,
2013-12-06 16:42:00,-5.0,-10.0,-100.00,WNW,285,10.0,12.0,80,-99.99,,,-99.99,,2013-12-06 22:42:00,
2013-12-06 16:53:00,-5.0,-10.0,-100.00,WNW,285,10.0,12.0,80,-99.99,,,-99.99,,2013-12-06 22:53:00,
2013-12-06 17:02:00,-7.0,-11.0,-100.00,NW,310,5.0,7.0,82,-99.99,,,-99.99,,2013-12-06 23:02:00,
2013-12-06 17:42:00,-7.0,-11.0,-100.00,NW,310,5.0,7.0,82,-99.99,,,-99.99,,2013-12-06 23:42:00,
2013-12-06 17:52:00,-7.0,-11.0,-100.00,NW,310,5.0,7.0,82,-99.99,,,-99.99,,2013-12-06 23:52:00,
2013-12-06 18:02:00,-8.0,-12.0,-100.00,NW,320,0.0,2.0,84,-99.99,,,-99.99,,2013-12-07 00:02:00,
2013-12-06 18:42:00,-8.0,-12.0,-100.00,NW,320,0.0,2.0,84,-99.99,,,-99.99,,2013-12-07 00:42:00,
2013-12-06 18:52:00,-8.0,-12.0,-100.00,NW,320,0.0,2.0,84,-99.99,,,-99.99,,2013-12-07 00:52:00,
2013-12-06 19:42:00,-9.0,-12.0,-100.00,West,280,6.0,6.0,86,-99.99,,,-99.99,,2013-12-07 01:42:00,
2013-12-06 19:52:00,-9.0,-12.0,-100.00,West,280,6.0,6.0,86,-99.99,,,-99.99,,2013-12-07 01:52:00,
2013-12-06 20:01:00,-9.0,-12.0,-100.00,West,280,6.0,6.0,86,-99.99,,,-99.99,,2013-12-07 02:01:00,
2013-12-06 20:02:00,-11.0,-13.0,-100.00,WNW,290,6.0,8.0,88,-99.99,,,-99.99,,2013-12-07 02:02:00,
2013-12-06 20:42:00,-11.0,-13.0,-100.00,WNW,290,6.0,8.0,88,-99.99,,,-99.99,,2013-12-07 02:42:00,
2013-12-06 20:52:00,-11.0,-13.0,-100.00,WNW,290,6.0,8.0,88,-99.99,,,-99.99,,2013-12-07 02:52:00,
2013-12-06 21:02:00,-13.0,-15.0,-100.00,WSW,255,0.0,0.0,90,-99.99,,,-99.99,,2013-12-07 03:02:00,
2013-12-06 21:43:00,-13.0,-15.0,-100.00,WSW,255,0.0,0.0,90,-99.99,,,-99.99,,2013-12-07 03:43:00,
2013-12-06 21:53:00,-13.0,-15.0,-100.00,WSW,255,0.0,0.0,90,-99.99,,,-99.99,,2013-12-07 03:53:00,
2013-12-06 22:02:00,-13.0,-15.0,-100.00,WNW,290,1.0,3.0,90,-99.99,,,-99.99,,2013-12-07 04:02:00,
2013-12-06 22:43:00,-13.0,-15.0,-100.00,WNW,290,1.0,3.0,90,-99.99,,,-99.99,,2013-12-07 04:43:00,
2013-12-06 22:53:00,-13.0,-15.0,-100.00,WNW,290,1.0,3.0,90,-99.99,,,-99.99,,2013-12-07 04:53:00,
2013-12-06 23:02:00,-15.0,-17.0,-100.00,North,0,0.0,2.0,89,-99.99,,,-99.99,,2013-12-07 05:02:00,
2013-12-06 23:43:00,-15.0,-17.0,-100.00,North,0,0.0,2.0,89,-99.99,,,-99.99,,2013-12-07 05:43:00,
2013-12-06 23:53:00,-15.0,-17.0,-100.00,North,0,0.0,2.0,89,-99.99,,,-99.99,,2013-12-07 05:53:00,